createdAt,value
2023-02-15T00:42:26.184Z,4.61
2023-02-15T00:44:52.764Z,4.56
2023-02-15T00:47:20.821Z,4.54
2023-02-15T00:49:47.398Z,4.56
2023-02-15T00:52:13.961Z,4.57
2023-02-15T00:54:40.573Z,4.59
2023-02-15T00:57:07.239Z,4.55
2023-02-15T00:59:33.797Z,4.53
2023-02-15T01:02:00.277Z,4.57
2023-02-15T01:04:26.886Z,4.54
2023-02-15T01:06:53.439Z,4.44
2023-02-15T01:09:19.920Z,4.43
2023-02-15T01:11:46.480Z,4.42
2023-02-15T01:14:14.105Z,4.38
2023-02-15T01:16:40.887Z,4.40
2023-02-15T01:19:07.511Z,4.36
2023-02-15T01:21:35.437Z,4.36
2023-02-15T01:24:03.034Z,4.32
2023-02-15T01:26:29.610Z,4.35
2023-02-15T01:28:57.032Z,4.33
2023-02-15T01:31:23.655Z,4.27
2023-02-15T01:33:50.700Z,4.28
2023-02-15T01:36:18.339Z,4.25
2023-02-15T01:38:45.196Z,4.19
2023-02-15T01:41:20.819Z,4.20
2023-02-15T01:43:50.164Z,4.19
2023-02-15T01:46:21.390Z,4.18
2023-02-15T01:48:54.762Z,4.12
2023-02-15T01:51:28.323Z,4.14
2023-02-15T01:54:09.291Z,4.14
2023-02-15T01:56:38.432Z,4.10
2023-02-15T01:59:09.965Z,4.07
2023-02-15T02:01:36.747Z,4.02
2023-02-15T02:04:06.133Z,4.02
2023-02-15T02:06:34.376Z,4.03
2023-02-15T02:09:02.132Z,3.99
2023-02-15T02:11:29.004Z,3.98
2023-02-15T02:13:57.017Z,3.96
2023-02-15T02:16:43.884Z,3.94
2023-02-15T02:19:46.201Z,3.98
2023-02-15T02:22:20.053Z,3.92
2023-02-15T02:25:28.047Z,3.90
2023-02-15T02:28:19.096Z,3.88
2023-02-15T02:31:03.746Z,3.86
2023-02-15T02:34:00.810Z,3.87
2023-02-15T02:36:37.008Z,3.84
2023-02-15T02:39:28.199Z,3.89
2023-02-15T02:42:14.963Z,3.82
2023-02-15T02:44:52.826Z,3.77
2023-02-15T02:47:28.248Z,3.78
2023-02-15T02:50:02.294Z,3.78
2023-02-15T02:52:39.405Z,3.78
2023-02-15T02:55:17.642Z,3.73
2023-02-15T02:57:55.340Z,3.75
2023-02-15T03:00:26.505Z,3.74
2023-02-15T03:03:05.755Z,3.88
2023-02-15T03:05:35.436Z,3.69
2023-02-15T03:08:07.050Z,3.69
2023-02-15T03:10:37.416Z,3.59
2023-02-15T03:13:06.003Z,3.64
2023-02-15T03:15:56.526Z,3.66
2023-02-15T03:18:29.130Z,3.62
2023-02-15T03:20:56.576Z,3.59
2023-02-15T03:23:25.699Z,3.50
2023-02-15T03:25:59.593Z,3.58
2023-02-15T03:28:52.634Z,3.53
2023-02-15T03:31:22.429Z,3.50
2023-02-15T03:33:56.453Z,3.56
2023-02-15T03:36:37.648Z,3.53
2023-02-15T03:39:23.176Z,3.70
2023-02-15T03:41:59.025Z,3.49
2023-02-15T03:44:31.767Z,3.46
2023-02-15T03:47:20.276Z,3.46
2023-02-15T03:49:57.602Z,3.47
2023-02-15T03:52:27.192Z,3.37
2023-02-15T03:54:54.297Z,3.38
2023-02-15T03:57:42.746Z,3.32
2023-02-15T04:00:40.385Z,3.39
2023-02-15T04:03:15.826Z,3.39
2023-02-15T04:05:44.600Z,3.34
2023-02-15T04:08:11.774Z,3.24
2023-02-15T04:10:53.478Z,3.31
2023-02-15T04:13:24.726Z,3.27
2023-02-15T04:16:04.227Z,3.25
2023-02-15T04:18:58.102Z,3.25
2023-02-15T04:21:45.089Z,3.21
2023-02-15T04:24:30.252Z,3.20
2023-02-15T04:26:57.096Z,3.16
2023-02-15T04:29:25.407Z,3.15
2023-02-15T04:31:53.682Z,3.11
2023-02-15T04:34:20.498Z,3.06
2023-02-15T04:36:47.161Z,3.05
2023-02-15T04:39:15.344Z,3.03
2023-02-15T04:41:41.917Z,3.07
2023-02-15T04:44:08.636Z,2.99
2023-02-15T04:46:35.197Z,3.20
2023-02-15T04:49:01.752Z,3.07
2023-02-15T04:51:28.384Z,2.98
2023-02-15T04:53:54.951Z,2.99
2023-02-15T04:56:22.060Z,2.98
2023-02-15T04:58:49.054Z,3.01
2023-02-15T05:01:16.111Z,2.91
2023-02-15T05:03:42.729Z,2.96
2023-02-15T05:06:09.286Z,2.91
2023-02-15T05:08:35.821Z,2.90
2023-02-15T05:11:02.360Z,2.88
2023-02-15T05:13:28.901Z,2.79
2023-02-15T05:15:55.527Z,3.01
2023-02-15T05:18:22.664Z,2.85
2023-02-15T05:20:49.855Z,2.80
2023-02-15T05:23:16.798Z,2.83
2023-02-15T05:26:07.044Z,2.77
2023-02-15T05:28:34.001Z,2.96
2023-02-15T05:31:03.654Z,2.98
2023-02-15T05:33:30.451Z,2.85
2023-02-15T05:35:57.075Z,2.78
2023-02-15T05:38:23.657Z,2.74
2023-02-15T05:40:52.099Z,2.79
2023-02-15T05:43:19.127Z,2.73
2023-02-15T05:45:54.785Z,2.69
2023-02-15T05:48:23.464Z,2.60
2023-02-15T05:51:03.818Z,2.70
2023-02-15T05:53:32.445Z,2.61
2023-02-15T05:56:03.391Z,2.67
2023-02-15T05:58:33.288Z,2.82
2023-02-15T06:01:00.212Z,2.63
2023-02-15T06:03:29.212Z,2.61
2023-02-15T06:05:55.808Z,2.61
2023-02-15T06:08:22.365Z,2.53
2023-02-15T06:10:48.896Z,2.52
2023-02-15T06:13:15.482Z,2.49
2023-02-15T06:15:42.028Z,2.46
2023-02-15T06:18:08.513Z,2.49
2023-02-15T06:20:35.016Z,2.65
2023-02-15T06:23:01.543Z,2.49
2023-02-15T06:25:28.185Z,2.41
2023-02-15T06:27:54.699Z,2.45
2023-02-15T06:30:21.726Z,2.40
2023-02-15T06:32:48.309Z,2.35
2023-02-15T06:35:16.136Z,2.39
2023-02-15T06:37:45.809Z,2.33
2023-02-15T06:40:12.533Z,2.30
2023-02-15T06:42:39.046Z,2.29
2023-02-15T06:45:07.680Z,2.27
2023-02-15T06:47:35.325Z,2.28
2023-02-15T06:50:01.934Z,2.47
2023-02-15T06:52:29.256Z,2.51
2023-02-15T06:54:55.802Z,2.55
2023-02-15T06:57:22.374Z,2.35
2023-02-15T06:59:49.001Z,2.38
2023-02-15T07:02:16.068Z,2.34
2023-02-15T07:04:42.667Z,2.27
2023-02-15T07:07:11.331Z,2.26
2023-02-15T07:09:38.130Z,2.21
2023-02-15T07:12:23.494Z,2.25
2023-02-15T07:14:50.034Z,2.30
2023-02-15T07:17:35.066Z,2.46
2023-02-15T07:20:07.003Z,2.49
2023-02-15T07:22:34.964Z,2.35
2023-02-15T07:25:01.643Z,2.36
2023-02-15T07:27:28.354Z,2.32
2023-02-15T07:29:54.927Z,2.35
2023-02-15T07:32:21.595Z,2.47
2023-02-15T07:34:48.074Z,2.26
2023-02-15T07:37:14.667Z,2.34
2023-02-15T07:39:41.206Z,2.33
2023-02-15T07:42:07.762Z,2.37
2023-02-15T07:44:34.384Z,2.31
2023-02-15T07:47:00.871Z,2.34
2023-02-15T07:49:27.564Z,2.37
2023-02-15T07:51:54.145Z,2.50
2023-02-15T07:54:20.732Z,2.52
2023-02-15T07:56:47.300Z,2.43
2023-02-15T07:59:14.081Z,2.42
2023-02-15T08:01:40.685Z,2.41
2023-02-15T08:04:08.532Z,2.47
2023-02-15T08:06:36.660Z,2.46
2023-02-15T08:09:08.111Z,2.53
2023-02-15T08:11:43.692Z,2.52
2023-02-15T08:14:12.324Z,2.55
2023-02-15T08:16:53.553Z,2.62
2023-02-15T08:19:24.574Z,2.65
2023-02-15T08:21:58.024Z,2.75
2023-02-15T08:24:26.693Z,2.81
2023-02-15T08:26:53.972Z,2.75
2023-02-15T08:29:24.408Z,2.76
2023-02-15T08:31:54.351Z,2.75
2023-02-15T08:34:22.224Z,2.76
2023-02-15T08:36:48.779Z,2.81
2023-02-15T08:39:16.066Z,2.77
2023-02-15T08:41:44.911Z,2.88
2023-02-15T08:44:12.246Z,2.80
2023-02-15T08:46:42.518Z,2.91
2023-02-15T08:49:15.974Z,2.97
2023-02-15T08:51:42.921Z,2.98
2023-02-15T08:54:13.615Z,3.07
2023-02-15T08:56:42.459Z,3.10
2023-02-15T08:59:15.042Z,3.19
2023-02-15T09:01:41.671Z,3.17
2023-02-15T09:04:09.743Z,3.20
2023-02-15T09:06:40.272Z,3.22
2023-02-15T09:09:08.331Z,3.26
2023-02-15T09:11:37.762Z,3.26
2023-02-15T09:14:09.028Z,3.32
2023-02-15T09:16:37.680Z,3.34
2023-02-15T09:19:08.751Z,3.39
2023-02-15T09:21:39.029Z,3.42
2023-02-15T09:24:09.050Z,3.46
2023-02-15T09:26:38.362Z,3.49
2023-02-15T09:29:05.021Z,3.51
2023-02-15T09:31:34.689Z,3.57
2023-02-15T09:34:02.404Z,3.58
2023-02-15T09:36:37.865Z,3.69
2023-02-15T09:39:12.031Z,3.69
2023-02-15T09:41:54.509Z,3.83
2023-02-15T09:44:31.540Z,3.81
2023-02-15T09:47:11.811Z,3.91
2023-02-15T09:49:58.532Z,3.95
2023-02-15T09:52:32.197Z,3.89
2023-02-15T09:55:32.439Z,4.03
2023-02-15T09:58:08.675Z,4.15
2023-02-15T10:01:03.423Z,4.17
2023-02-15T10:04:06.230Z,4.24
2023-02-15T10:06:47.182Z,4.24
2023-02-15T10:09:28.756Z,4.41
2023-02-15T10:12:10.419Z,4.45
2023-02-15T10:15:05.620Z,4.53
2023-02-15T10:17:50.801Z,4.58
2023-02-15T10:20:29.000Z,4.63
2023-02-15T10:23:29.758Z,4.68
2023-02-15T10:26:15.061Z,4.76
2023-02-15T10:29:08.737Z,4.91
2023-02-15T10:32:07.910Z,4.88
2023-02-15T10:34:44.221Z,5.05
2023-02-15T10:37:29.535Z,5.13
2023-02-15T10:40:08.193Z,5.52
2023-02-15T10:42:59.565Z,5.33
2023-02-15T10:46:08.724Z,5.42
2023-02-15T10:48:53.567Z,5.51
2023-02-15T10:51:44.015Z,5.59
2023-02-15T10:54:19.056Z,5.69
2023-02-15T10:57:14.980Z,5.71
2023-02-15T11:00:05.662Z,5.82
2023-02-15T11:02:56.460Z,5.93
2023-02-15T11:05:49.965Z,6.08
2023-02-15T11:08:17.398Z,6.55
2023-02-15T11:10:54.824Z,6.57
2023-02-15T11:13:25.583Z,6.74
2023-02-15T11:15:57.300Z,6.79
2023-02-15T11:18:32.113Z,6.99
2023-02-15T11:21:12.387Z,6.88
2023-02-15T11:23:45.600Z,6.86
2023-02-15T11:26:34.066Z,6.94
2023-02-15T11:29:19.418Z,7.00
2023-02-15T11:31:50.225Z,6.99
2023-02-15T11:34:35.326Z,6.94
2023-02-15T11:37:21.511Z,7.08
2023-02-15T11:39:52.516Z,7.15
2023-02-15T11:42:25.910Z,7.34
2023-02-15T11:45:32.365Z,7.30
2023-02-15T11:48:00.323Z,7.38
2023-02-15T11:50:30.186Z,7.39
2023-02-15T11:53:03.226Z,7.62
2023-02-15T11:55:30.813Z,7.70
2023-02-15T11:58:09.732Z,7.73
2023-02-15T12:00:53.205Z,7.92
2023-02-15T12:03:39.135Z,8.33
2023-02-15T12:06:12.747Z,8.03
2023-02-15T12:08:44.039Z,8.15
2023-02-15T12:11:16.322Z,8.22
2023-02-15T12:14:06.259Z,8.13
2023-02-15T12:16:49.640Z,8.32
2023-02-15T12:19:33.903Z,8.45
2023-02-15T12:22:03.424Z,8.58
2023-02-15T12:24:39.084Z,8.66
2023-02-15T12:27:15.756Z,8.65
2023-02-15T12:29:46.849Z,8.68
2023-02-15T12:32:23.632Z,8.74
2023-02-15T12:34:52.414Z,8.76
2023-02-15T12:37:23.937Z,8.94
2023-02-15T12:39:58.913Z,9.07
2023-02-15T12:42:28.195Z,8.83
2023-02-15T12:45:03.359Z,8.85
2023-02-15T12:47:32.278Z,9.07
2023-02-15T12:50:24.423Z,8.97
2023-02-15T12:52:52.423Z,9.03
2023-02-15T12:55:25.078Z,9.00
2023-02-15T12:58:16.998Z,9.15
2023-02-15T13:00:43.639Z,9.21
2023-02-15T13:03:19.081Z,9.20
2023-02-15T13:05:49.793Z,9.48
2023-02-15T13:08:50.656Z,9.42
2023-02-15T13:11:31.334Z,9.40
2023-02-15T13:14:16.788Z,9.48
2023-02-15T13:16:45.332Z,9.49
2023-02-15T13:19:17.842Z,9.58
2023-02-15T13:21:48.112Z,9.69
2023-02-15T13:24:30.530Z,9.72
2023-02-15T13:27:13.130Z,9.76
2023-02-15T13:29:43.886Z,9.74
2023-02-15T13:32:23.736Z,9.73
2023-02-15T13:34:50.442Z,9.72
2023-02-15T13:37:26.455Z,9.83
2023-02-15T13:40:07.857Z,9.85
2023-02-15T13:42:42.335Z,9.90
2023-02-15T13:45:31.614Z,9.87
2023-02-15T13:48:21.109Z,9.86
2023-02-15T13:50:53.471Z,9.93
2023-02-15T13:53:38.312Z,9.89
2023-02-15T13:56:36.918Z,10.09
2023-02-15T13:59:13.213Z,9.92
2023-02-15T14:02:19.791Z,10.00
2023-02-15T14:05:11.700Z,10.15
2023-02-15T14:07:50.209Z,10.23
2023-02-15T14:10:41.091Z,10.35
2023-02-15T14:13:29.036Z,10.42
2023-02-15T14:16:18.508Z,10.40
2023-02-15T14:19:11.468Z,10.42
2023-02-15T14:21:50.134Z,10.41
2023-02-15T14:24:47.255Z,10.38
2023-02-15T14:27:48.361Z,10.45
2023-02-15T14:30:21.523Z,10.44
2023-02-15T14:32:59.226Z,10.29
2023-02-15T14:35:29.147Z,10.35
2023-02-15T14:38:02.493Z,10.28
2023-02-15T14:41:01.449Z,10.33
2023-02-15T14:43:46.196Z,10.39
2023-02-15T14:46:47.006Z,10.43
2023-02-15T14:49:17.365Z,10.32
2023-02-15T14:51:43.984Z,10.37
2023-02-15T14:54:33.611Z,10.31
2023-02-15T14:57:03.083Z,10.21
2023-02-15T15:00:07.728Z,10.30
2023-02-15T15:02:40.249Z,10.22
2023-02-15T15:05:19.265Z,10.24
2023-02-15T15:07:53.398Z,10.19
2023-02-15T15:10:21.298Z,10.24
2023-02-15T15:12:53.463Z,10.22
2023-02-15T15:15:31.986Z,10.25
2023-02-15T15:18:04.602Z,10.24
2023-02-15T15:20:42.777Z,10.23
2023-02-15T15:23:45.467Z,10.24
2023-02-15T15:26:30.265Z,10.18
2023-02-15T15:28:59.848Z,10.12
2023-02-15T15:32:00.923Z,10.17
2023-02-15T15:34:44.115Z,10.15
2023-02-15T15:37:10.628Z,10.14
2023-02-15T15:39:55.261Z,10.09
2023-02-15T15:42:21.729Z,10.06
2023-02-15T15:45:15.440Z,10.10
2023-02-15T15:48:09.572Z,10.05
2023-02-15T15:50:41.298Z,10.01
2023-02-15T15:53:19.334Z,9.97
2023-02-15T15:55:49.747Z,9.98
2023-02-15T15:58:19.770Z,10.02
2023-02-15T16:00:51.442Z,10.01
2023-02-15T16:03:26.791Z,9.98
2023-02-15T16:05:57.108Z,9.96
2023-02-15T16:08:39.381Z,9.95
2023-02-15T16:11:16.636Z,9.93
2023-02-15T16:13:44.261Z,9.95
2023-02-15T16:16:14.237Z,9.89
2023-02-15T16:18:43.244Z,9.86
2023-02-15T16:21:19.436Z,9.86
2023-02-15T16:23:52.006Z,9.86
2023-02-15T16:26:44.423Z,9.86
2023-02-15T16:29:19.857Z,9.82
2023-02-15T16:32:27.921Z,9.88
2023-02-15T16:35:02.910Z,9.79
2023-02-15T16:37:34.301Z,9.77
2023-02-15T16:40:01.937Z,9.76
2023-02-15T16:42:28.577Z,9.73
2023-02-15T16:45:08.645Z,9.75
2023-02-15T16:47:42.230Z,9.75
2023-02-15T16:50:19.594Z,9.73
2023-02-15T16:52:46.281Z,9.71
2023-02-15T16:55:23.032Z,9.68
2023-02-15T16:57:50.587Z,9.68
2023-02-15T17:00:24.142Z,9.66
2023-02-15T17:02:58.804Z,9.65
2023-02-15T17:05:34.469Z,9.64
2023-02-15T17:08:06.673Z,9.61
2023-02-15T17:10:42.708Z,9.56
2023-02-15T17:13:14.591Z,9.55
2023-02-15T17:15:45.415Z,9.71
2023-02-15T17:18:19.578Z,9.52
2023-02-15T17:20:48.559Z,9.52
2023-02-15T17:23:36.815Z,9.55
2023-02-15T17:26:16.402Z,9.44
2023-02-15T17:28:53.542Z,9.45
2023-02-15T17:31:21.732Z,9.42
2023-02-15T17:33:48.911Z,9.37
2023-02-15T17:36:20.287Z,9.36
2023-02-15T17:38:58.769Z,9.38
2023-02-15T17:41:26.927Z,9.33
2023-02-15T17:43:53.543Z,9.30
2023-02-15T17:46:23.544Z,9.32
2023-02-15T17:48:52.806Z,9.28
2023-02-15T17:51:20.551Z,9.26
2023-02-15T17:54:05.618Z,9.25
2023-02-15T17:56:33.308Z,9.23
2023-02-15T17:59:00.049Z,9.20
2023-02-15T18:01:45.334Z,9.16
2023-02-15T18:04:32.245Z,9.21
2023-02-15T18:07:18.343Z,9.16
2023-02-15T18:10:03.731Z,9.17
2023-02-15T18:12:37.748Z,9.13
2023-02-15T18:15:05.857Z,9.10
2023-02-15T18:17:43.138Z,9.11
2023-02-15T18:20:19.181Z,9.03
2023-02-15T18:22:49.126Z,9.03
2023-02-15T18:25:17.745Z,8.98
2023-02-15T18:27:44.342Z,8.99
2023-02-15T18:30:16.249Z,8.95
2023-02-15T18:32:43.373Z,8.99
2023-02-15T18:35:16.199Z,8.98
2023-02-15T18:37:43.081Z,8.87
2023-02-15T18:40:16.085Z,8.91
2023-02-15T18:42:47.086Z,8.70
2023-02-15T18:45:15.244Z,8.80
2023-02-15T18:47:41.754Z,8.73
2023-02-15T18:50:08.948Z,8.77
2023-02-15T18:52:37.922Z,8.68
2023-02-15T18:55:19.360Z,8.74
2023-02-15T18:57:47.291Z,8.67
2023-02-15T19:00:19.404Z,8.70
2023-02-15T19:02:46.078Z,8.69
2023-02-15T19:05:13.425Z,8.67
2023-02-15T19:07:40.666Z,8.63
2023-02-15T19:10:13.453Z,8.60
2023-02-15T19:12:40.041Z,8.60
2023-02-15T19:15:06.840Z,8.55
2023-02-15T19:17:33.395Z,8.57
2023-02-15T19:19:59.888Z,8.51
2023-02-15T19:22:30.066Z,8.50
2023-02-15T19:24:59.871Z,8.49
2023-02-15T19:27:29.925Z,8.51
2023-02-15T19:29:59.243Z,8.51
2023-02-15T19:32:26.147Z,8.46
2023-02-15T19:34:52.687Z,8.46
2023-02-15T19:37:42.240Z,8.50
2023-02-15T19:40:25.599Z,8.50
2023-02-15T19:42:52.302Z,8.43
2023-02-15T19:45:26.067Z,8.49
2023-02-15T19:47:53.896Z,8.44
2023-02-15T19:50:24.084Z,8.44
2023-02-15T19:52:51.086Z,8.39
2023-02-15T19:55:37.965Z,8.48
2023-02-15T19:58:12.057Z,8.34
2023-02-15T20:00:38.603Z,8.32
2023-02-15T20:03:05.281Z,8.28
2023-02-15T20:05:34.831Z,8.26
2023-02-15T20:08:03.916Z,8.24
2023-02-15T20:10:31.717Z,8.31
2023-02-15T20:12:58.565Z,8.26
2023-02-15T20:15:34.462Z,8.28
2023-02-15T20:18:06.783Z,8.25
2023-02-15T20:20:51.672Z,8.26
2023-02-15T20:23:18.391Z,8.23
2023-02-15T20:25:45.273Z,8.24
2023-02-15T20:28:23.126Z,8.19
2023-02-15T20:30:50.246Z,8.20
2023-02-15T20:33:18.138Z,8.17
2023-02-15T20:35:45.913Z,8.15
2023-02-15T20:38:32.886Z,8.13
2023-02-15T20:41:19.566Z,8.03
2023-02-15T20:43:46.187Z,8.08
2023-02-15T20:46:12.722Z,7.99
2023-02-15T20:48:39.298Z,8.02
2023-02-15T20:51:10.312Z,8.02
2023-02-15T20:53:36.868Z,8.00
2023-02-15T20:56:03.710Z,7.95
2023-02-15T20:58:30.828Z,7.98
2023-02-15T21:00:58.913Z,7.97
2023-02-15T21:03:30.814Z,7.91
2023-02-15T21:05:58.273Z,7.95
2023-02-15T21:08:25.498Z,7.86
2023-02-15T21:10:53.225Z,7.96
2023-02-15T21:13:25.680Z,7.91
2023-02-15T21:15:53.928Z,7.91
2023-02-15T21:18:27.357Z,7.91
2023-02-15T21:20:56.753Z,7.92
2023-02-15T21:23:26.291Z,7.87
2023-02-15T21:25:55.858Z,7.83
2023-02-15T21:28:24.615Z,7.82
2023-02-15T21:30:54.133Z,7.75
2023-02-15T21:33:21.026Z,7.82
2023-02-15T21:35:50.846Z,7.79
2023-02-15T21:38:21.189Z,7.74
2023-02-15T21:40:49.094Z,7.72
2023-02-15T21:43:39.256Z,7.78
2023-02-15T21:46:32.943Z,7.74
2023-02-15T21:48:59.608Z,7.68
2023-02-15T21:51:45.072Z,7.71
2023-02-15T21:54:13.572Z,7.73
2023-02-15T21:56:41.963Z,7.67
2023-02-15T21:59:12.829Z,7.69
2023-02-15T22:01:42.149Z,7.60
2023-02-15T22:04:14.460Z,7.61
2023-02-15T22:06:41.397Z,7.52
2023-02-15T22:09:19.482Z,7.55
2023-02-15T22:11:46.669Z,7.45
2023-02-15T22:14:34.220Z,7.52
2023-02-15T22:17:00.788Z,7.46
2023-02-15T22:19:28.794Z,7.42
2023-02-15T22:21:55.400Z,7.50
2023-02-15T22:24:22.009Z,7.44
2023-02-15T22:26:48.537Z,7.38
2023-02-15T22:29:18.336Z,7.37
2023-02-15T22:31:45.226Z,7.36
2023-02-15T22:34:27.066Z,7.27
2023-02-15T22:36:54.165Z,7.32
2023-02-15T22:39:22.181Z,7.31
2023-02-15T22:41:49.107Z,7.26
2023-02-15T22:44:24.034Z,7.15
2023-02-15T22:46:51.447Z,7.18
2023-02-15T22:49:18.617Z,7.15
2023-02-15T22:51:49.596Z,7.16
2023-02-15T22:54:17.517Z,7.18
2023-02-15T22:56:51.531Z,7.10
2023-02-15T22:59:29.604Z,7.08
2023-02-15T23:01:57.291Z,7.00
2023-02-15T23:04:26.422Z,7.08
2023-02-15T23:06:55.190Z,7.06
2023-02-15T23:09:22.357Z,7.11
2023-02-15T23:11:50.810Z,7.01
2023-02-15T23:14:27.467Z,6.94
2023-02-15T23:16:54.436Z,7.05
2023-02-15T23:19:21.504Z,7.04
2023-02-15T23:21:48.245Z,6.99
2023-02-15T23:24:26.068Z,6.91
2023-02-15T23:26:53.341Z,6.96
2023-02-15T23:29:23.885Z,6.90
2023-02-15T23:31:53.192Z,6.88
2023-02-15T23:34:37.958Z,6.98
2023-02-15T23:37:04.452Z,6.90
2023-02-15T23:39:49.696Z,6.90
2023-02-15T23:42:20.173Z,6.84
2023-02-15T23:44:47.998Z,6.81
2023-02-15T23:47:47.199Z,6.79
2023-02-15T23:50:28.801Z,6.83
2023-02-15T23:52:56.369Z,6.79
2023-02-15T23:55:27.450Z,6.74
2023-02-15T23:57:54.091Z,6.77
